sensor_id;sensor_type;location;lat;lon;timestamp;P1;durP1;ratioP1;P2;durP2;ratioP2
32138;SDS011;18644;48.700;9.210;2022-12-07T00:01:19;5.00;;;3.05;;
32138;SDS011;18644;48.700;9.210;2022-12-07T00:03:51;5.85;;;3.42;;
32138;SDS011;18644;48.700;9.210;2022-12-07T00:06:22;5.97;;;3.55;;
32138;SDS011;18644;48.700;9.210;2022-12-07T00:08:49;3.80;;;3.33;;
32138;SDS011;18644;48.700;9.210;2022-12-07T00:11:17;6.20;;;3.60;;
32138;SDS011;18644;48.700;9.210;2022-12-07T00:13:47;5.68;;;3.67;;
32138;SDS011;18644;48.700;9.210;2022-12-07T00:16:19;5.30;;;3.47;;
32138;SDS011;18644;48.700;9.210;2022-12-07T00:18:48;3.88;;;2.67;;
32138;SDS011;18644;48.700;9.210;2022-12-07T00:21:17;3.80;;;3.20;;
32138;SDS011;18644;48.700;9.210;2022-12-07T00:23:46;6.32;;;3.60;;
32138;SDS011;18644;48.700;9.210;2022-12-07T00:26:15;4.43;;;3.55;;
32138;SDS011;18644;48.700;9.210;2022-12-07T00:28:44;7.97;;;4.50;;
32138;SDS011;18644;48.700;9.210;2022-12-07T00:31:13;4.70;;;3.38;;
32138;SDS011;18644;48.700;9.210;2022-12-07T00:33:41;4.95;;;3.60;;
32138;SDS011;18644;48.700;9.210;2022-12-07T00:36:09;4.03;;;3.00;;
32138;SDS011;18644;48.700;9.210;2022-12-07T00:38:39;4.20;;;3.40;;
32138;SDS011;18644;48.700;9.210;2022-12-07T00:41:09;5.85;;;3.30;;
32138;SDS011;18644;48.700;9.210;2022-12-07T00:43:41;6.07;;;4.05;;
32138;SDS011;18644;48.700;9.210;2022-12-07T00:46:09;5.50;;;3.80;;
32138;SDS011;18644;48.700;9.210;2022-12-07T00:48:37;4.55;;;3.65;;
32138;SDS011;18644;48.700;9.210;2022-12-07T00:51:05;5.63;;;4.25;;
32138;SDS011;18644;48.700;9.210;2022-12-07T00:53:33;5.65;;;3.60;;
32138;SDS011;18644;48.700;9.210;2022-12-07T00:56:05;5.25;;;3.85;;
32138;SDS011;18644;48.700;9.210;2022-12-07T00:58:34;5.85;;;4.05;;
32138;SDS011;18644;48.700;9.210;2022-12-07T01:01:01;5.70;;;4.05;;
32138;SDS011;18644;48.700;9.210;2022-12-07T01:03:30;5.97;;;4.43;;
32138;SDS011;18644;48.700;9.210;2022-12-07T01:05:58;5.18;;;4.18;;
32138;SDS011;18644;48.700;9.210;2022-12-07T01:08:26;5.43;;;4.25;;
32138;SDS011;18644;48.700;9.210;2022-12-07T01:10:57;5.97;;;4.90;;
32138;SDS011;18644;48.700;9.210;2022-12-07T01:13:27;6.90;;;4.10;;
32138;SDS011;18644;48.700;9.210;2022-12-07T01:15:56;5.38;;;4.15;;
32138;SDS011;18644;48.700;9.210;2022-12-07T01:18:25;7.80;;;4.83;;
32138;SDS011;18644;48.700;9.210;2022-12-07T01:20:57;7.20;;;5.07;;
32138;SDS011;18644;48.700;9.210;2022-12-07T01:23:25;7.47;;;4.03;;
32138;SDS011;18644;48.700;9.210;2022-12-07T01:25:56;5.30;;;4.25;;
32138;SDS011;18644;48.700;9.210;2022-12-07T01:28:23;7.77;;;4.57;;
32138;SDS011;18644;48.700;9.210;2022-12-07T01:30:56;6.18;;;4.95;;
32138;SDS011;18644;48.700;9.210;2022-12-07T01:33:28;6.95;;;4.97;;
32138;SDS011;18644;48.700;9.210;2022-12-07T01:36:00;5.75;;;4.75;;
32138;SDS011;18644;48.700;9.210;2022-12-07T01:38:29;11.48;;;6.00;;
32138;SDS011;18644;48.700;9.210;2022-12-07T01:40:56;7.10;;;4.78;;
32138;SDS011;18644;48.700;9.210;2022-12-07T01:43:25;9.15;;;5.68;;
32138;SDS011;18644;48.700;9.210;2022-12-07T01:45:56;6.18;;;5.13;;
32138;SDS011;18644;48.700;9.210;2022-12-07T01:48:24;7.03;;;5.07;;
32138;SDS011;18644;48.700;9.210;2022-12-07T01:50:55;6.95;;;5.07;;
32138;SDS011;18644;48.700;9.210;2022-12-07T01:53:27;6.68;;;5.18;;
32138;SDS011;18644;48.700;9.210;2022-12-07T01:55:56;7.78;;;5.47;;
32138;SDS011;18644;48.700;9.210;2022-12-07T01:58:25;8.25;;;5.47;;
32138;SDS011;18644;48.700;9.210;2022-12-07T02:00:53;7.88;;;5.72;;
32138;SDS011;18644;48.700;9.210;2022-12-07T02:03:22;8.27;;;5.10;;
32138;SDS011;18644;48.700;9.210;2022-12-07T02:05:55;7.32;;;5.15;;
32138;SDS011;18644;48.700;9.210;2022-12-07T02:08:24;6.53;;;5.25;;
32138;SDS011;18644;48.700;9.210;2022-12-07T02:10:52;7.45;;;5.50;;
32138;SDS011;18644;48.700;9.210;2022-12-07T02:13:19;7.45;;;5.80;;
32138;SDS011;18644;48.700;9.210;2022-12-07T02:16:05;7.93;;;5.82;;
32138;SDS011;18644;48.700;9.210;2022-12-07T02:18:44;9.68;;;6.18;;
32138;SDS011;18644;48.700;9.210;2022-12-07T02:21:28;8.13;;;5.53;;
32138;SDS011;18644;48.700;9.210;2022-12-07T02:24:18;8.05;;;5.68;;
32138;SDS011;18644;48.700;9.210;2022-12-07T02:27:06;8.27;;;5.80;;
32138;SDS011;18644;48.700;9.210;2022-12-07T02:29:47;8.27;;;5.43;;
32138;SDS011;18644;48.700;9.210;2022-12-07T02:32:20;7.28;;;5.30;;
32138;SDS011;18644;48.700;9.210;2022-12-07T02:34:54;8.27;;;5.47;;
32138;SDS011;18644;48.700;9.210;2022-12-07T02:37:33;7.68;;;5.25;;
32138;SDS011;18644;48.700;9.210;2022-12-07T02:40:07;5.68;;;4.18;;
32138;SDS011;18644;48.700;9.210;2022-12-07T02:42:42;6.32;;;4.65;;
32138;SDS011;18644;48.700;9.210;2022-12-07T02:45:15;6.72;;;4.85;;
32138;SDS011;18644;48.700;9.210;2022-12-07T02:47:46;6.32;;;4.43;;
32138;SDS011;18644;48.700;9.210;2022-12-07T02:50:19;9.13;;;5.50;;
32138;SDS011;18644;48.700;9.210;2022-12-07T02:52:47;7.15;;;4.60;;
32138;SDS011;18644;48.700;9.210;2022-12-07T02:55:15;6.88;;;4.60;;
32138;SDS011;18644;48.700;9.210;2022-12-07T02:57:50;6.80;;;4.38;;
32138;SDS011;18644;48.700;9.210;2022-12-07T03:00:37;4.95;;;3.65;;
32138;SDS011;18644;48.700;9.210;2022-12-07T03:03:19;5.88;;;4.40;;
32138;SDS011;18644;48.700;9.210;2022-12-07T03:08:45;5.57;;;4.00;;
32138;SDS011;18644;48.700;9.210;2022-12-07T03:11:21;5.50;;;4.22;;
32138;SDS011;18644;48.700;9.210;2022-12-07T03:13:58;5.85;;;4.22;;
32138;SDS011;18644;48.700;9.210;2022-12-07T03:16:30;6.38;;;3.95;;
32138;SDS011;18644;48.700;9.210;2022-12-07T03:19:02;6.53;;;4.70;;
32138;SDS011;18644;48.700;9.210;2022-12-07T03:21:34;6.10;;;4.53;;
32138;SDS011;18644;48.700;9.210;2022-12-07T03:24:07;7.45;;;4.65;;
32138;SDS011;18644;48.700;9.210;2022-12-07T03:26:38;5.85;;;4.53;;
32138;SDS011;18644;48.700;9.210;2022-12-07T03:29:16;5.90;;;4.35;;
32138;SDS011;18644;48.700;9.210;2022-12-07T03:31:48;6.22;;;4.75;;
32138;SDS011;18644;48.700;9.210;2022-12-07T03:34:22;6.85;;;4.63;;
32138;SDS011;18644;48.700;9.210;2022-12-07T03:36:57;6.18;;;4.20;;
32138;SDS011;18644;48.700;9.210;2022-12-07T03:39:30;7.60;;;5.15;;
32138;SDS011;18644;48.700;9.210;2022-12-07T03:42:04;6.13;;;4.63;;
32138;SDS011;18644;48.700;9.210;2022-12-07T03:44:32;6.90;;;4.95;;
32138;SDS011;18644;48.700;9.210;2022-12-07T03:47:03;6.85;;;4.95;;
32138;SDS011;18644;48.700;9.210;2022-12-07T03:49:36;6.50;;;4.70;;
32138;SDS011;18644;48.700;9.210;2022-12-07T03:52:12;6.28;;;4.60;;
32138;SDS011;18644;48.700;9.210;2022-12-07T03:54:47;8.63;;;5.30;;
32138;SDS011;18644;48.700;9.210;2022-12-07T03:57:22;7.40;;;5.30;;
32138;SDS011;18644;48.700;9.210;2022-12-07T03:59:51;7.68;;;5.30;;
32138;SDS011;18644;48.700;9.210;2022-12-07T04:02:22;6.10;;;5.18;;
32138;SDS011;18644;48.700;9.210;2022-12-07T04:04:51;7.93;;;5.30;;
32138;SDS011;18644;48.700;9.210;2022-12-07T04:07:19;6.82;;;4.45;;
32138;SDS011;18644;48.700;9.210;2022-12-07T04:09:45;5.15;;;4.25;;
32138;SDS011;18644;48.700;9.210;2022-12-07T04:12:12;7.70;;;5.28;;
32138;SDS011;18644;48.700;9.210;2022-12-07T04:14:39;6.93;;;4.85;;
32138;SDS011;18644;48.700;9.210;2022-12-07T04:17:06;8.38;;;4.63;;
32138;SDS011;18644;48.700;9.210;2022-12-07T04:19:35;7.35;;;4.82;;
32138;SDS011;18644;48.700;9.210;2022-12-07T04:22:04;7.10;;;4.93;;
32138;SDS011;18644;48.700;9.210;2022-12-07T04:24:32;7.00;;;4.95;;
32138;SDS011;18644;48.700;9.210;2022-12-07T04:26:59;7.32;;;5.05;;
32138;SDS011;18644;48.700;9.210;2022-12-07T04:29:26;5.20;;;3.85;;
32138;SDS011;18644;48.700;9.210;2022-12-07T04:31:53;5.22;;;3.97;;
32138;SDS011;18644;48.700;9.210;2022-12-07T04:34:20;7.68;;;4.85;;
32138;SDS011;18644;48.700;9.210;2022-12-07T04:36:49;7.13;;;4.35;;
32138;SDS011;18644;48.700;9.210;2022-12-07T04:39:17;5.65;;;4.00;;
32138;SDS011;18644;48.700;9.210;2022-12-07T04:41:47;6.60;;;4.55;;
32138;SDS011;18644;48.700;9.210;2022-12-07T04:44:15;7.25;;;4.97;;
32138;SDS011;18644;48.700;9.210;2022-12-07T04:46:43;6.20;;;4.65;;
32138;SDS011;18644;48.700;9.210;2022-12-07T04:49:10;7.40;;;4.55;;
32138;SDS011;18644;48.700;9.210;2022-12-07T04:51:38;6.18;;;4.30;;
32138;SDS011;18644;48.700;9.210;2022-12-07T04:54:06;9.55;;;4.97;;
32138;SDS011;18644;48.700;9.210;2022-12-07T04:56:34;5.47;;;3.90;;
32138;SDS011;18644;48.700;9.210;2022-12-07T04:59:01;4.30;;;3.17;;
32138;SDS011;18644;48.700;9.210;2022-12-07T05:01:30;4.03;;;3.17;;
32138;SDS011;18644;48.700;9.210;2022-12-07T05:03:57;3.83;;;3.10;;
32138;SDS011;18644;48.700;9.210;2022-12-07T05:06:24;2.95;;;2.30;;
32138;SDS011;18644;48.700;9.210;2022-12-07T05:08:51;2.90;;;2.40;;
32138;SDS011;18644;48.700;9.210;2022-12-07T05:11:19;2.63;;;2.20;;
32138;SDS011;18644;48.700;9.210;2022-12-07T05:14:06;3.65;;;2.75;;
32138;SDS011;18644;48.700;9.210;2022-12-07T05:19:04;4.05;;;3.08;;
32138;SDS011;18644;48.700;9.210;2022-12-07T05:21:31;4.57;;;3.20;;
32138;SDS011;18644;48.700;9.210;2022-12-07T05:23:58;3.97;;;2.90;;
32138;SDS011;18644;48.700;9.210;2022-12-07T05:26:27;4.47;;;3.10;;
32138;SDS011;18644;48.700;9.210;2022-12-07T05:28:54;4.43;;;3.13;;
32138;SDS011;18644;48.700;9.210;2022-12-07T05:31:23;5.28;;;4.00;;
32138;SDS011;18644;48.700;9.210;2022-12-07T05:33:51;6.38;;;4.60;;
32138;SDS011;18644;48.700;9.210;2022-12-07T05:36:19;6.00;;;4.13;;
32138;SDS011;18644;48.700;9.210;2022-12-07T05:38:46;7.72;;;4.82;;
32138;SDS011;18644;48.700;9.210;2022-12-07T05:41:14;6.97;;;4.30;;
32138;SDS011;18644;48.700;9.210;2022-12-07T05:44:02;6.32;;;3.95;;
32138;SDS011;18644;48.700;9.210;2022-12-07T05:46:29;4.90;;;3.50;;
32138;SDS011;18644;48.700;9.210;2022-12-07T05:48:56;8.63;;;3.70;;
32138;SDS011;18644;48.700;9.210;2022-12-07T05:51:23;6.38;;;4.28;;
32138;SDS011;18644;48.700;9.210;2022-12-07T05:53:50;7.65;;;3.80;;
32138;SDS011;18644;48.700;9.210;2022-12-07T05:56:17;5.93;;;3.53;;
32138;SDS011;18644;48.700;9.210;2022-12-07T05:58:44;7.13;;;4.90;;
32138;SDS011;18644;48.700;9.210;2022-12-07T06:01:30;6.28;;;3.45;;
32138;SDS011;18644;48.700;9.210;2022-12-07T06:03:57;7.82;;;3.92;;
32138;SDS011;18644;48.700;9.210;2022-12-07T06:06:24;5.55;;;3.83;;
32138;SDS011;18644;48.700;9.210;2022-12-07T06:08:51;4.72;;;3.78;;
32138;SDS011;18644;48.700;9.210;2022-12-07T06:11:18;5.38;;;3.95;;
32138;SDS011;18644;48.700;9.210;2022-12-07T06:14:02;4.13;;;3.17;;
32138;SDS011;18644;48.700;9.210;2022-12-07T06:16:31;5.63;;;3.72;;
32138;SDS011;18644;48.700;9.210;2022-12-07T06:18:58;5.43;;;3.45;;
32138;SDS011;18644;48.700;9.210;2022-12-07T06:21:25;5.18;;;3.45;;
32138;SDS011;18644;48.700;9.210;2022-12-07T06:23:52;4.55;;;3.10;;
32138;SDS011;18644;48.700;9.210;2022-12-07T06:26:20;4.32;;;3.05;;
32138;SDS011;18644;48.700;9.210;2022-12-07T06:28:48;4.47;;;3.20;;
32138;SDS011;18644;48.700;9.210;2022-12-07T06:31:15;5.65;;;3.60;;
32138;SDS011;18644;48.700;9.210;2022-12-07T06:33:44;3.83;;;2.92;;
32138;SDS011;18644;48.700;9.210;2022-12-07T06:36:11;3.75;;;2.83;;
32138;SDS011;18644;48.700;9.210;2022-12-07T06:38:38;4.80;;;2.90;;
32138;SDS011;18644;48.700;9.210;2022-12-07T06:41:06;5.25;;;3.50;;
32138;SDS011;18644;48.700;9.210;2022-12-07T06:43:33;4.88;;;3.08;;
32138;SDS011;18644;48.700;9.210;2022-12-07T06:46:00;5.03;;;3.22;;
32138;SDS011;18644;48.700;9.210;2022-12-07T06:48:27;5.15;;;3.55;;
32138;SDS011;18644;48.700;9.210;2022-12-07T06:50:55;4.88;;;3.03;;
32138;SDS011;18644;48.700;9.210;2022-12-07T06:53:22;4.97;;;3.10;;
32138;SDS011;18644;48.700;9.210;2022-12-07T06:55:49;3.20;;;2.38;;
32138;SDS011;18644;48.700;9.210;2022-12-07T06:58:16;3.60;;;2.85;;
32138;SDS011;18644;48.700;9.210;2022-12-07T07:00:44;20.13;;;3.25;;
32138;SDS011;18644;48.700;9.210;2022-12-07T07:03:11;4.80;;;3.30;;
32138;SDS011;18644;48.700;9.210;2022-12-07T07:05:38;7.47;;;4.30;;
32138;SDS011;18644;48.700;9.210;2022-12-07T07:08:06;7.07;;;4.10;;
32138;SDS011;18644;48.700;9.210;2022-12-07T07:10:34;6.53;;;4.18;;
32138;SDS011;18644;48.700;9.210;2022-12-07T07:13:01;6.10;;;4.05;;
32138;SDS011;18644;48.700;9.210;2022-12-07T07:15:29;6.43;;;4.32;;
32138;SDS011;18644;48.700;9.210;2022-12-07T07:17:58;5.80;;;4.13;;
32138;SDS011;18644;48.700;9.210;2022-12-07T07:20:25;5.15;;;3.88;;
32138;SDS011;18644;48.700;9.210;2022-12-07T07:22:53;5.82;;;3.75;;
32138;SDS011;18644;48.700;9.210;2022-12-07T07:25:22;6.15;;;4.00;;
32138;SDS011;18644;48.700;9.210;2022-12-07T07:27:50;9.13;;;4.53;;
32138;SDS011;18644;48.700;9.210;2022-12-07T07:30:17;6.28;;;4.22;;
32138;SDS011;18644;48.700;9.210;2022-12-07T07:32:44;6.95;;;4.63;;
32138;SDS011;18644;48.700;9.210;2022-12-07T07:35:11;8.10;;;4.95;;
32138;SDS011;18644;48.700;9.210;2022-12-07T07:37:39;5.45;;;4.18;;
32138;SDS011;18644;48.700;9.210;2022-12-07T07:40:06;7.15;;;4.35;;
32138;SDS011;18644;48.700;9.210;2022-12-07T07:42:35;7.70;;;4.80;;
32138;SDS011;18644;48.700;9.210;2022-12-07T07:45:02;6.82;;;4.65;;
32138;SDS011;18644;48.700;9.210;2022-12-07T07:47:30;7.25;;;4.97;;
32138;SDS011;18644;48.700;9.210;2022-12-07T07:49:57;9.05;;;5.38;;
32138;SDS011;18644;48.700;9.210;2022-12-07T07:52:24;6.28;;;4.35;;
32138;SDS011;18644;48.700;9.210;2022-12-07T07:54:52;5.97;;;3.78;;
32138;SDS011;18644;48.700;9.210;2022-12-07T07:57:18;6.25;;;4.32;;
32138;SDS011;18644;48.700;9.210;2022-12-07T07:59:47;5.95;;;4.35;;
32138;SDS011;18644;48.700;9.210;2022-12-07T08:02:14;6.35;;;4.05;;
32138;SDS011;18644;48.700;9.210;2022-12-07T08:04:42;6.07;;;4.70;;
32138;SDS011;18644;48.700;9.210;2022-12-07T08:07:10;6.07;;;4.50;;
32138;SDS011;18644;48.700;9.210;2022-12-07T08:09:38;6.50;;;4.30;;
32138;SDS011;18644;48.700;9.210;2022-12-07T08:12:05;9.70;;;4.50;;
32138;SDS011;18644;48.700;9.210;2022-12-07T08:14:33;6.00;;;4.28;;
32138;SDS011;18644;48.700;9.210;2022-12-07T08:17:01;6.28;;;4.20;;
32138;SDS011;18644;48.700;9.210;2022-12-07T08:19:28;5.93;;;3.83;;
32138;SDS011;18644;48.700;9.210;2022-12-07T08:21:55;6.10;;;4.40;;
32138;SDS011;18644;48.700;9.210;2022-12-07T08:24:22;6.32;;;4.35;;
32138;SDS011;18644;48.700;9.210;2022-12-07T08:26:50;6.72;;;4.65;;
32138;SDS011;18644;48.700;9.210;2022-12-07T08:29:17;5.82;;;4.38;;
32138;SDS011;18644;48.700;9.210;2022-12-07T08:31:45;7.72;;;4.78;;
32138;SDS011;18644;48.700;9.210;2022-12-07T08:34:13;6.53;;;4.10;;
32138;SDS011;18644;48.700;9.210;2022-12-07T08:36:40;7.13;;;4.72;;
32138;SDS011;18644;48.700;9.210;2022-12-07T08:39:07;6.85;;;4.43;;
32138;SDS011;18644;48.700;9.210;2022-12-07T08:41:35;5.50;;;3.90;;
32138;SDS011;18644;48.700;9.210;2022-12-07T08:44:02;8.30;;;5.15;;
32138;SDS011;18644;48.700;9.210;2022-12-07T08:46:30;6.03;;;4.53;;
32138;SDS011;18644;48.700;9.210;2022-12-07T08:49:03;8.38;;;5.47;;
32138;SDS011;18644;48.700;9.210;2022-12-07T08:51:35;6.18;;;4.38;;
32138;SDS011;18644;48.700;9.210;2022-12-07T08:54:04;8.57;;;4.30;;
32138;SDS011;18644;48.700;9.210;2022-12-07T08:56:34;7.68;;;4.72;;
32138;SDS011;18644;48.700;9.210;2022-12-07T08:59:01;5.28;;;4.05;;
32138;SDS011;18644;48.700;9.210;2022-12-07T09:01:29;6.75;;;4.32;;
32138;SDS011;18644;48.700;9.210;2022-12-07T09:03:56;6.63;;;4.35;;
32138;SDS011;18644;48.700;9.210;2022-12-07T09:06:23;6.30;;;4.53;;
32138;SDS011;18644;48.700;9.210;2022-12-07T09:08:52;6.40;;;3.95;;
32138;SDS011;18644;48.700;9.210;2022-12-07T09:11:23;5.38;;;4.03;;
32138;SDS011;18644;48.700;9.210;2022-12-07T09:13:50;6.10;;;4.10;;
32138;SDS011;18644;48.700;9.210;2022-12-07T09:16:16;7.43;;;4.72;;
32138;SDS011;18644;48.700;9.210;2022-12-07T09:18:43;6.85;;;4.07;;
32138;SDS011;18644;48.700;9.210;2022-12-07T09:21:10;4.65;;;3.45;;
32138;SDS011;18644;48.700;9.210;2022-12-07T09:23:37;6.35;;;4.22;;
32138;SDS011;18644;48.700;9.210;2022-12-07T09:26:05;5.95;;;4.00;;
32138;SDS011;18644;48.700;9.210;2022-12-07T09:28:32;5.65;;;3.88;;
32138;SDS011;18644;48.700;9.210;2022-12-07T09:30:59;9.00;;;3.92;;
32138;SDS011;18644;48.700;9.210;2022-12-07T09:33:28;4.10;;;3.35;;
32138;SDS011;18644;48.700;9.210;2022-12-07T09:35:55;5.35;;;3.45;;
32138;SDS011;18644;48.700;9.210;2022-12-07T09:38:22;5.78;;;3.55;;
32138;SDS011;18644;48.700;9.210;2022-12-07T09:40:51;5.40;;;4.00;;
32138;SDS011;18644;48.700;9.210;2022-12-07T09:43:22;4.85;;;3.75;;
32138;SDS011;18644;48.700;9.210;2022-12-07T09:45:51;6.32;;;3.92;;
32138;SDS011;18644;48.700;9.210;2022-12-07T09:48:21;6.50;;;3.92;;
32138;SDS011;18644;48.700;9.210;2022-12-07T09:50:53;5.07;;;3.67;;
32138;SDS011;18644;48.700;9.210;2022-12-07T09:53:24;5.55;;;4.03;;
32138;SDS011;18644;48.700;9.210;2022-12-07T09:55:53;7.10;;;4.47;;
32138;SDS011;18644;48.700;9.210;2022-12-07T09:58:23;5.60;;;3.88;;
32138;SDS011;18644;48.700;9.210;2022-12-07T10:00:52;5.43;;;3.60;;
32138;SDS011;18644;48.700;9.210;2022-12-07T10:03:22;5.70;;;3.88;;
32138;SDS011;18644;48.700;9.210;2022-12-07T10:05:50;5.38;;;3.78;;
32138;SDS011;18644;48.700;9.210;2022-12-07T10:08:19;5.80;;;3.53;;
32138;SDS011;18644;48.700;9.210;2022-12-07T10:10:48;5.30;;;3.63;;
32138;SDS011;18644;48.700;9.210;2022-12-07T10:13:18;6.88;;;3.95;;
32138;SDS011;18644;48.700;9.210;2022-12-07T10:15:50;5.28;;;3.63;;
32138;SDS011;18644;48.700;9.210;2022-12-07T10:18:20;4.47;;;3.08;;
32138;SDS011;18644;48.700;9.210;2022-12-07T10:21:01;4.82;;;3.28;;
32138;SDS011;18644;48.700;9.210;2022-12-07T10:23:41;6.18;;;3.90;;
32138;SDS011;18644;48.700;9.210;2022-12-07T10:26:26;4.90;;;3.15;;
32138;SDS011;18644;48.700;9.210;2022-12-07T10:28:58;4.78;;;3.30;;
32138;SDS011;18644;48.700;9.210;2022-12-07T10:31:29;4.13;;;3.30;;
32138;SDS011;18644;48.700;9.210;2022-12-07T10:33:57;6.15;;;3.92;;
32138;SDS011;18644;48.700;9.210;2022-12-07T10:36:26;4.30;;;3.15;;
32138;SDS011;18644;48.700;9.210;2022-12-07T10:39:01;4.05;;;2.78;;
32138;SDS011;18644;48.700;9.210;2022-12-07T10:41:38;4.68;;;3.13;;
32138;SDS011;18644;48.700;9.210;2022-12-07T10:44:22;5.28;;;3.42;;
32138;SDS011;18644;48.700;9.210;2022-12-07T10:46:55;2.85;;;2.50;;
32138;SDS011;18644;48.700;9.210;2022-12-07T10:53:09;4.40;;;3.35;;
32138;SDS011;18644;48.700;9.210;2022-12-07T10:56:03;3.70;;;2.90;;
32138;SDS011;18644;48.700;9.210;2022-12-07T10:58:49;3.92;;;3.00;;
32138;SDS011;18644;48.700;9.210;2022-12-07T11:01:31;4.28;;;3.15;;
32138;SDS011;18644;48.700;9.210;2022-12-07T11:04:19;3.42;;;2.95;;
32138;SDS011;18644;48.700;9.210;2022-12-07T11:06:58;3.78;;;2.63;;
32138;SDS011;18644;48.700;9.210;2022-12-07T11:09:41;3.83;;;2.92;;
32138;SDS011;18644;48.700;9.210;2022-12-07T11:12:22;4.95;;;2.97;;
32138;SDS011;18644;48.700;9.210;2022-12-07T11:15:02;5.03;;;3.20;;
32138;SDS011;18644;48.700;9.210;2022-12-07T11:17:41;4.25;;;2.97;;
32138;SDS011;18644;48.700;9.210;2022-12-07T11:20:19;4.63;;;2.45;;
32138;SDS011;18644;48.700;9.210;2022-12-07T11:22:59;5.03;;;2.92;;
32138;SDS011;18644;48.700;9.210;2022-12-07T11:25:43;4.03;;;3.00;;
32138;SDS011;18644;48.700;9.210;2022-12-07T11:28:24;10.45;;;3.40;;
32138;SDS011;18644;48.700;9.210;2022-12-07T11:31:07;4.78;;;3.00;;
32138;SDS011;18644;48.700;9.210;2022-12-07T11:33:44;5.05;;;3.03;;
32138;SDS011;18644;48.700;9.210;2022-12-07T11:36:23;4.38;;;3.20;;
32138;SDS011;18644;48.700;9.210;2022-12-07T11:39:00;3.28;;;2.65;;
32138;SDS011;18644;48.700;9.210;2022-12-07T11:41:31;4.25;;;3.22;;
32138;SDS011;18644;48.700;9.210;2022-12-07T11:44:04;4.13;;;3.10;;
32138;SDS011;18644;48.700;9.210;2022-12-07T11:46:42;4.35;;;3.20;;
32138;SDS011;18644;48.700;9.210;2022-12-07T11:49:14;4.88;;;3.33;;
32138;SDS011;18644;48.700;9.210;2022-12-07T11:51:49;3.95;;;3.00;;
32138;SDS011;18644;48.700;9.210;2022-12-07T11:54:21;3.92;;;2.88;;
32138;SDS011;18644;48.700;9.210;2022-12-07T11:56:54;4.82;;;3.10;;
32138;SDS011;18644;48.700;9.210;2022-12-07T11:59:25;3.80;;;2.95;;
32138;SDS011;18644;48.700;9.210;2022-12-07T12:01:59;3.72;;;2.88;;
32138;SDS011;18644;48.700;9.210;2022-12-07T12:04:41;3.85;;;2.63;;
32138;SDS011;18644;48.700;9.210;2022-12-07T12:07:19;4.43;;;3.00;;
32138;SDS011;18644;48.700;9.210;2022-12-07T12:09:51;4.43;;;2.90;;
32138;SDS011;18644;48.700;9.210;2022-12-07T12:12:27;3.90;;;2.78;;
32138;SDS011;18644;48.700;9.210;2022-12-07T12:15:21;5.35;;;2.63;;
32138;SDS011;18644;48.700;9.210;2022-12-07T12:18:17;6.00;;;3.15;;
32138;SDS011;18644;48.700;9.210;2022-12-07T12:21:06;3.95;;;2.95;;
32138;SDS011;18644;48.700;9.210;2022-12-07T12:23:39;3.85;;;2.47;;
32138;SDS011;18644;48.700;9.210;2022-12-07T12:26:14;4.60;;;3.22;;
32138;SDS011;18644;48.700;9.210;2022-12-07T12:28:50;4.28;;;2.85;;
32138;SDS011;18644;48.700;9.210;2022-12-07T12:31:32;3.05;;;2.53;;
32138;SDS011;18644;48.700;9.210;2022-12-07T12:34:10;5.78;;;3.15;;
32138;SDS011;18644;48.700;9.210;2022-12-07T12:37:13;3.05;;;2.35;;
32138;SDS011;18644;48.700;9.210;2022-12-07T12:58:44;2.40;;;1.90;;
32138;SDS011;18644;48.700;9.210;2022-12-07T13:04:16;2.85;;;2.28;;
32138;SDS011;18644;48.700;9.210;2022-12-07T13:06:55;2.53;;;2.20;;
32138;SDS011;18644;48.700;9.210;2022-12-07T13:09:25;3.60;;;2.50;;
32138;SDS011;18644;48.700;9.210;2022-12-07T13:11:58;3.00;;;2.20;;
32138;SDS011;18644;48.700;9.210;2022-12-07T13:14:39;2.38;;;1.98;;
32138;SDS011;18644;48.700;9.210;2022-12-07T13:23:21;4.43;;;2.42;;
32138;SDS011;18644;48.700;9.210;2022-12-07T13:25:56;3.00;;;2.42;;
32138;SDS011;18644;48.700;9.210;2022-12-07T13:28:45;4.28;;;3.10;;
32138;SDS011;18644;48.700;9.210;2022-12-07T13:31:16;3.50;;;2.70;;
32138;SDS011;18644;48.700;9.210;2022-12-07T13:33:51;3.67;;;2.28;;
32138;SDS011;18644;48.700;9.210;2022-12-07T13:36:19;3.22;;;2.22;;
32138;SDS011;18644;48.700;9.210;2022-12-07T13:38:50;3.58;;;2.60;;
32138;SDS011;18644;48.700;9.210;2022-12-07T13:41:22;2.50;;;2.25;;
32138;SDS011;18644;48.700;9.210;2022-12-07T13:43:52;5.38;;;2.55;;
32138;SDS011;18644;48.700;9.210;2022-12-07T13:46:29;3.88;;;2.60;;
32138;SDS011;18644;48.700;9.210;2022-12-07T13:49:14;2.95;;;2.35;;
32138;SDS011;18644;48.700;9.210;2022-12-07T13:51:47;2.95;;;2.22;;
32138;SDS011;18644;48.700;9.210;2022-12-07T13:54:15;4.63;;;2.47;;
32138;SDS011;18644;48.700;9.210;2022-12-07T13:56:46;3.47;;;2.72;;
32138;SDS011;18644;48.700;9.210;2022-12-07T13:59:17;3.63;;;2.63;;
32138;SDS011;18644;48.700;9.210;2022-12-07T14:01:47;2.83;;;2.25;;
32138;SDS011;18644;48.700;9.210;2022-12-07T14:04:16;4.03;;;2.38;;
32138;SDS011;18644;48.700;9.210;2022-12-07T14:06:56;3.13;;;2.35;;
32138;SDS011;18644;48.700;9.210;2022-12-07T14:09:26;5.10;;;2.28;;
32138;SDS011;18644;48.700;9.210;2022-12-07T14:11:56;2.95;;;2.45;;
32138;SDS011;18644;48.700;9.210;2022-12-07T14:14:25;4.10;;;2.05;;
32138;SDS011;18644;48.700;9.210;2022-12-07T14:16:55;3.30;;;2.38;;
32138;SDS011;18644;48.700;9.210;2022-12-07T14:19:45;4.30;;;2.65;;
32138;SDS011;18644;48.700;9.210;2022-12-07T14:22:23;3.58;;;2.55;;
32138;SDS011;18644;48.700;9.210;2022-12-07T14:25:00;2.90;;;2.22;;
32138;SDS011;18644;48.700;9.210;2022-12-07T14:27:53;2.33;;;1.98;;
32138;SDS011;18644;48.700;9.210;2022-12-07T14:30:24;3.95;;;2.42;;
32138;SDS011;18644;48.700;9.210;2022-12-07T14:32:54;2.65;;;1.80;;
32138;SDS011;18644;48.700;9.210;2022-12-07T14:35:24;1.58;;;1.45;;
32138;SDS011;18644;48.700;9.210;2022-12-07T14:37:51;2.30;;;2.05;;
32138;SDS011;18644;48.700;9.210;2022-12-07T14:40:19;3.42;;;2.42;;
32138;SDS011;18644;48.700;9.210;2022-12-07T14:42:50;4.53;;;2.40;;
32138;SDS011;18644;48.700;9.210;2022-12-07T14:45:22;6.63;;;2.28;;
32138;SDS011;18644;48.700;9.210;2022-12-07T14:47:49;5.07;;;2.03;;
32138;SDS011;18644;48.700;9.210;2022-12-07T14:50:17;5.28;;;2.15;;
32138;SDS011;18644;48.700;9.210;2022-12-07T14:52:46;3.90;;;2.53;;
32138;SDS011;18644;48.700;9.210;2022-12-07T14:55:19;3.45;;;2.28;;
32138;SDS011;18644;48.700;9.210;2022-12-07T14:57:50;2.45;;;1.80;;
32138;SDS011;18644;48.700;9.210;2022-12-07T15:00:20;2.92;;;2.30;;
32138;SDS011;18644;48.700;9.210;2022-12-07T15:02:49;2.70;;;2.30;;
32138;SDS011;18644;48.700;9.210;2022-12-07T15:05:17;5.40;;;2.67;;
32138;SDS011;18644;48.700;9.210;2022-12-07T15:07:45;2.65;;;2.10;;
32138;SDS011;18644;48.700;9.210;2022-12-07T15:10:14;4.95;;;2.70;;
32138;SDS011;18644;48.700;9.210;2022-12-07T15:12:44;2.95;;;2.60;;
32138;SDS011;18644;48.700;9.210;2022-12-07T15:15:11;3.95;;;2.80;;
32138;SDS011;18644;48.700;9.210;2022-12-07T15:17:40;2.60;;;1.90;;
32138;SDS011;18644;48.700;9.210;2022-12-07T15:20:08;2.90;;;2.17;;
32138;SDS011;18644;48.700;9.210;2022-12-07T15:22:41;2.85;;;2.33;;
32138;SDS011;18644;48.700;9.210;2022-12-07T15:25:09;3.17;;;2.10;;
32138;SDS011;18644;48.700;9.210;2022-12-07T15:27:39;2.75;;;2.17;;
32138;SDS011;18644;48.700;9.210;2022-12-07T15:30:06;5.20;;;2.78;;
32138;SDS011;18644;48.700;9.210;2022-12-07T15:32:34;3.88;;;2.60;;
32138;SDS011;18644;48.700;9.210;2022-12-07T15:35:02;3.50;;;2.78;;
32138;SDS011;18644;48.700;9.210;2022-12-07T15:37:30;3.42;;;2.47;;
32138;SDS011;18644;48.700;9.210;2022-12-07T15:39:57;3.78;;;2.80;;
32138;SDS011;18644;48.700;9.210;2022-12-07T15:42:25;3.15;;;2.53;;
32138;SDS011;18644;48.700;9.210;2022-12-07T15:44:52;3.45;;;2.58;;
32138;SDS011;18644;48.700;9.210;2022-12-07T15:47:30;5.68;;;3.35;;
32138;SDS011;18644;48.700;9.210;2022-12-07T15:49:58;4.85;;;3.03;;